Time;durP1;ratioP1;P1;durP2;ratioP2;P2;SDS_P1;SDS_P2;PMS_P1;PMS_P2;Temp;Humidity;BMP_temperature;BMP_pressure;BME280_temperature;BME280_humidity;BME280_pressure;Samples;Min_cycle;Max_cycle;Signal;HPM_P1;HPM_P2
2023/10/15 00:02:07;;;;;;;5.47;0.85;;;5.50;99.90;;;;;;5076128;28;20070;-25
2023/10/15 00:04:33;;;;;;;7.55;1.10;;;5.30;99.90;;;;;;5076386;28;20043;-25
2023/10/15 00:07:05;;;;;;;5.85;0.80;;;5.30;99.90;;;;;;5075218;28;20048;-25
2023/10/15 00:09:32;;;;;;;5.50;1.70;;;5.30;99.90;;;;;;5076255;28;20071;-26
2023/10/15 00:12:00;;;;;;;7.47;1.27;;;5.30;99.90;;;;;;5076305;28;20055;-26
2023/10/15 00:14:25;;;;;;;6.78;0.98;;;5.40;99.90;;;;;;5058310;28;20048;-26
2023/10/15 00:16:51;;;;;;;10.77;1.15;;;5.70;99.90;;;;;;5076108;28;20044;-25
2023/10/15 00:19:17;;;;;;;7.32;1.38;;;5.90;99.90;;;;;;5076143;28;20044;-25
2023/10/15 00:21:43;;;;;;;7.18;0.98;;;6.00;99.90;;;;;;5076086;28;20045;-25
2023/10/15 00:24:10;;;;;;;9.25;1.02;;;6.10;99.90;;;;;;5074917;28;20051;-26
2023/10/15 00:26:38;;;;;;;6.82;1.10;;;6.20;99.90;;;;;;5076093;28;20040;-25
2023/10/15 00:29:08;;;;;;;4.70;0.98;;;6.00;99.90;;;;;;5076039;28;20053;-25
2023/10/15 00:31:34;;;;;;;3.55;0.80;;;5.90;99.90;;;;;;5076774;28;20067;-25
2023/10/15 00:34:00;;;;;;;5.22;1.23;;;5.70;99.90;;;;;;5076742;28;20463;-25
2023/10/15 00:36:27;;;;;;;3.50;0.60;;;5.50;99.90;;;;;;5075752;28;20056;-25
2023/10/15 00:38:53;;;;;;;5.35;0.73;;;5.40;99.90;;;;;;5075811;28;20051;-25
2023/10/15 00:41:19;;;;;;;5.38;0.73;;;5.30;99.90;;;;;;5075451;28;20045;-25
2023/10/15 00:43:55;;;;;;;7.60;0.77;;;5.20;99.90;;;;;;5075708;28;20050;-25
2023/10/15 00:46:26;;;;;;;6.55;1.00;;;5.60;99.90;;;;;;5076191;28;20372;-25
2023/10/15 00:48:56;;;;;;;7.72;0.85;;;5.90;99.90;;;;;;5075635;28;20048;-25
2023/10/15 00:51:23;;;;;;;10.93;1.00;;;6.20;99.90;;;;;;5076371;28;20045;-25
2023/10/15 00:53:58;;;;;;;6.13;1.08;;;6.40;99.90;;;;;;5075509;28;20043;-25
2023/10/15 00:56:26;;;;;;;5.72;0.85;;;6.40;99.90;;;;;;5075667;28;20060;-25
2023/10/15 00:59:08;;;;;;;10.48;1.45;;;6.40;99.90;;;;;;5075437;28;20090;-25
2023/10/15 01:01:37;;;;;;;5.22;0.98;;;6.40;95.60;;;;;;5075585;28;20563;-25
2023/10/15 01:04:06;;;;;;;7.70;0.85;;;6.40;99.90;;;;;;5075282;28;20249;-25
2023/10/15 01:06:42;;;;;;;8.32;1.10;;;6.40;99.90;;;;;;5075827;28;20041;-25
2023/10/15 01:09:10;;;;;;;9.90;1.10;;;6.50;99.90;;;;;;5074561;28;20045;-25
2023/10/15 01:11:58;;;;;;;4.13;0.75;;;6.50;92.70;;;;;;5076040;28;20420;-25
2023/10/15 01:14:38;;;;;;;9.52;1.40;;;6.30;99.90;;;;;;5075200;28;20055;-25
2023/10/15 01:17:05;;;;;;;5.63;1.05;;;6.20;99.90;;;;;;5059861;28;20489;-24
2023/10/15 01:19:33;;;;;;;7.35;1.27;;;6.00;99.90;;;;;;5075047;28;20367;-25
2023/10/15 01:22:04;;;;;;;7.20;1.17;;;5.80;99.90;;;;;;5073968;28;20060;-24
2023/10/15 01:24:36;;;;;;;6.97;1.02;;;5.80;99.90;;;;;;5075539;28;20106;-25
2023/10/15 01:27:10;;;;;;;7.75;1.13;;;5.70;99.90;;;;;;5074910;28;20064;-25
2023/10/15 01:29:45;;;;;;;7.32;1.70;;;5.60;99.90;;;;;;5075447;28;20078;-25
2023/10/15 01:32:21;;;;;;;12.85;1.48;;;5.50;99.90;;;;;;5075580;28;20435;-26
2023/10/15 01:34:49;;;;;;;6.72;2.15;;;5.40;99.90;;;;;;5075038;28;20055;-26
2023/10/15 01:39:59;;;;;;;5.90;0.82;;;5.60;99.90;;;;;;5075249;28;20060;-26
2023/10/15 01:50:15;;;;;;;7.15;1.08;;;5.30;99.90;;;;;;5073969;28;20052;-26
2023/10/15 01:52:42;;;;;;;14.63;0.95;;;5.30;99.90;;;;;;5074380;28;20045;-26
2023/10/15 01:55:08;;;;;;;7.22;1.00;;;5.30;99.90;;;;;;5074117;28;20040;-26
2023/10/15 01:57:39;;;;;;;5.80;0.73;;;5.30;99.90;;;;;;5072868;28;20140;-26
2023/10/15 02:00:32;;;;;;;4.00;0.60;;;5.20;99.90;;;;;;5074533;28;20067;-26
2023/10/15 02:02:53;;;;;;;9.30;0.77;;;5.20;99.90;;;;;;5058430;28;20494;-26
2023/10/15 02:05:28;;;;;;;4.90;0.80;;;5.00;99.90;;;;;;5074207;28;20131;-27
2023/10/15 02:07:56;;;;;;;6.22;0.95;;;4.80;99.90;;;;;;5074160;28;20052;-27
2023/10/15 02:10:28;;;;;;;5.55;0.80;;;4.60;99.90;;;;;;5073513;28;20052;-26
2023/10/15 02:13:04;;;;;;;6.68;0.73;;;4.60;99.90;;;;;;5074615;28;20052;-26
2023/10/15 02:15:41;;;;;;;5.15;0.57;;;4.50;99.90;;;;;;5074615;28;20123;-26
2023/10/15 02:18:08;;;;;;;12.38;0.80;;;4.50;99.90;;;;;;5073311;28;20086;-27
2023/10/15 02:23:21;;;;;;;;;;;4.50;99.90;;;;;;5074362;28;20589;-26
2023/10/15 02:25:56;;;;;;;3.78;1.42;;;4.50;99.90;;;;;;5074173;28;20340;-26
2023/10/15 02:28:31;;;;;;;7.63;1.13;;;4.50;99.90;;;;;;5074495;28;20101;-26
2023/10/15 02:33:36;;;;;;;12.90;1.00;;;4.70;99.90;;;;;;5073786;28;20106;-26
2023/10/15 02:36:09;;;;;;;3.33;0.45;;;4.90;99.90;;;;;;5073672;28;20130;-26
2023/10/15 02:38:37;;;;;;;5.97;0.80;;;5.10;99.90;;;;;;5074079;28;20463;-26
2023/10/15 02:41:05;;;;;;;5.97;0.90;;;5.40;99.90;;;;;;5073701;28;20373;-26
2023/10/15 02:43:31;;;;;;;15.13;0.73;;;5.50;99.90;;;;;;5073628;28;20048;-27
2023/10/15 02:46:00;;;;;;;2.08;0.47;;;5.70;99.90;;;;;;5073652;28;20495;-27
2023/10/15 02:48:27;;;;;;;4.47;0.80;;;5.70;99.90;;;;;;5074155;28;20082;-26
2023/10/15 02:51:00;;;;;;;5.93;0.80;;;5.80;99.90;;;;;;5074220;28;20045;-27
2023/10/15 02:53:28;;;;;;;3.97;0.77;;;5.80;99.90;;;;;;5074180;28;20049;-28
2023/10/15 02:55:58;;;;;;;6.25;0.40;;;5.80;99.90;;;;;;5055513;28;20064;-27
2023/10/15 02:58:27;;;;;;;5.65;0.73;;;5.70;99.90;;;;;;5056955;28;20045;-27
2023/10/15 03:01:00;;;;;;;4.22;0.60;;;5.80;99.90;;;;;;5056229;28;20044;-26
2023/10/15 03:03:33;;;;;;;5.78;0.77;;;5.80;99.90;;;;;;5056681;28;20131;-27
2023/10/15 03:05:59;;;;;;;5.68;0.43;;;5.80;99.90;;;;;;5040570;28;20158;-27
2023/10/15 03:08:31;;;;;;;6.07;0.50;;;5.90;99.90;;;;;;5074295;28;20040;-26
2023/10/15 03:11:11;;;;;;;2.67;0.50;;;6.00;99.90;;;;;;5073514;28;20048;-27
2023/10/15 03:13:49;;;;;;;3.00;0.38;;;6.10;99.90;;;;;;5073457;28;20127;-28
2023/10/15 03:16:16;;;;;;;6.72;0.75;;;6.20;99.90;;;;;;5072941;28;20413;-26
2023/10/15 03:18:42;;;;;;;3.78;0.32;;;6.20;99.90;;;;;;5073318;28;20525;-26
2023/10/15 03:21:19;;;;;;;2.70;0.38;;;6.20;99.90;;;;;;5073383;28;20037;-26
2023/10/15 03:23:48;;;;;;;4.85;0.45;;;6.30;99.90;;;;;;5074172;28;20106;-29
2023/10/15 03:26:18;;;;;;;5.28;0.75;;;6.20;99.90;;;;;;5072265;28;20048;-31
2023/10/15 03:28:50;;;;;;;3.90;0.20;;;6.00;99.90;;;;;;5074055;28;20074;-31
2023/10/15 03:31:17;;;;;;;5.10;0.57;;;5.90;99.90;;;;;;5073778;28;20082;-32
2023/10/15 03:33:59;;;;;;;4.43;0.40;;;5.90;99.90;;;;;;5075627;28;20593;-32
2023/10/15 03:36:26;;;;;;;4.97;0.47;;;5.90;99.90;;;;;;5077261;28;20049;-35
2023/10/15 03:38:54;;;;;;;5.85;0.60;;;5.90;99.90;;;;;;5059038;28;20084;-33
2023/10/15 03:41:27;;;;;;;3.40;0.32;;;6.20;99.90;;;;;;5075767;28;20048;-33
2023/10/15 03:43:53;;;;;;;6.05;0.40;;;5.90;99.90;;;;;;5076885;28;20054;-32
2023/10/15 03:46:19;;;;;;;3.10;0.32;;;5.80;99.90;;;;;;5076862;28;20048;-32
2023/10/15 03:48:50;;;;;;;4.70;0.75;;;5.70;99.90;;;;;;5075509;28;20048;-31
2023/10/15 03:51:20;;;;;;;5.32;0.60;;;5.70;99.90;;;;;;5077375;28;20110;-31
2023/10/15 03:53:49;;;;;;;3.80;0.47;;;5.80;99.90;;;;;;5076532;28;20098;-31
2023/10/15 03:56:18;;;;;;;2.90;0.25;;;5.50;99.90;;;;;;5076572;28;20057;-32
2023/10/15 03:58:44;;;;;;;3.60;0.57;;;5.40;99.90;;;;;;5076636;28;20123;-31
2023/10/15 04:01:20;;;;;;;2.20;0.25;;;5.40;99.90;;;;;;5076452;28;20532;-32
2023/10/15 04:03:49;;;;;;;4.43;0.30;;;5.50;99.90;;;;;;5077364;28;20123;-31
2023/10/15 04:06:20;;;;;;;1.35;0.20;;;5.30;99.90;;;;;;5059590;28;20425;-31
2023/10/15 04:11:42;;;;;;;3.65;0.45;;;5.30;99.90;;;;;;5076361;28;20487;-29
2023/10/15 04:14:22;;;;;;;4.80;0.52;;;5.30;99.90;;;;;;5043087;28;20084;-31
2023/10/15 04:16:50;;;;;;;1.33;0.25;;;5.40;99.90;;;;;;5076227;28;20040;-31
2023/10/15 04:19:17;;;;;;;2.13;0.47;;;5.40;99.90;;;;;;5076253;28;20056;-31
2023/10/15 04:21:44;;;;;;;6.82;0.40;;;5.40;99.90;;;;;;5058268;28;20051;-30
2023/10/15 04:24:14;;;;;;;1.85;0.50;;;5.40;99.90;;;;;;5075816;28;20517;-29
2023/10/15 04:26:42;;;;;;;3.85;0.30;;;5.50;99.90;;;;;;5076057;28;20083;-29
2023/10/15 04:29:18;;;;;;;1.00;0.43;;;5.50;99.90;;;;;;5076009;28;20486;-29
2023/10/15 04:31:56;;;;;;;1.92;0.57;;;5.60;99.90;;;;;;5076057;28;20087;-28
2023/10/15 04:34:25;;;;;;;4.65;0.68;;;5.60;99.90;;;;;;5075660;28;20244;-28
2023/10/15 04:36:51;;;;;;;1.42;0.25;;;5.80;99.90;;;;;;5075824;28;20111;-28
2023/10/15 04:39:21;;;;;;;4.78;0.60;;;5.80;99.90;;;;;;5076616;28;20140;-28
2023/10/15 04:41:49;;;;;;;3.25;0.50;;;6.00;99.90;;;;;;5059000;28;20052;-27
2023/10/15 04:44:31;;;;;;;1.10;0.22;;;5.80;99.90;;;;;;5076137;28;20052;-27
2023/10/15 04:47:05;;;;;;;1.88;0.40;;;5.60;99.90;;;;;;5075740;28;20047;-27
2023/10/15 04:49:32;;;;;;;4.90;0.50;;;5.50;99.90;;;;;;5074761;28;20052;-28
2023/10/15 04:51:58;;;;;;;2.13;0.20;;;5.40;99.90;;;;;;5075666;28;20110;-27
2023/10/15 04:54:25;;;;;;;4.80;0.30;;;5.40;99.90;;;;;;5075577;28;20059;-27
2023/10/15 04:56:52;;;;;;;5.55;0.40;;;5.30;99.90;;;;;;5074197;28;20056;-27
2023/10/15 04:59:18;;;;;;;5.07;0.60;;;5.20;99.90;;;;;;5075177;28;20553;-27
2023/10/15 05:01:45;;;;;;;3.22;0.77;;;5.20;99.90;;;;;;5075297;28;20127;-27
2023/10/15 05:04:13;;;;;;;3.22;1.38;;;5.20;99.90;;;;;;5075373;28;20055;-27
2023/10/15 05:06:38;;;;;;;4.53;1.02;;;5.10;99.90;;;;;;5074344;28;20105;-27
2023/10/15 05:09:08;;;;;;;2.42;0.73;;;5.00;99.90;;;;;;5075321;28;20123;-26
2023/10/15 05:11:35;;;;;;;4.45;0.75;;;5.00;99.90;;;;;;5075151;28;20056;-26
2023/10/15 05:14:01;;;;;;;5.85;1.35;;;4.90;99.90;;;;;;5057531;28;20098;-26
2023/10/15 05:16:26;;;;;;;5.38;0.68;;;4.80;99.90;;;;;;5075003;28;20052;-26
2023/10/15 05:18:52;;;;;;;2.90;0.77;;;4.60;99.90;;;;;;5075035;28;20044;-26
2023/10/15 05:21:18;;;;;;;4.75;0.77;;;4.40;99.90;;;;;;5057653;28;20040;-26
2023/10/15 05:23:45;;;;;;;3.42;0.50;;;4.50;99.90;;;;;;5057152;28;20537;-26
2023/10/15 05:26:12;;;;;;;6.97;1.55;;;4.50;99.90;;;;;;5057563;28;20060;-26
2023/10/15 05:28:38;;;;;;;3.95;1.13;;;4.50;99.90;;;;;;5074893;28;20052;-26
2023/10/15 05:31:03;;;;;;;9.07;1.80;;;4.50;99.90;;;;;;5074753;28;20559;-27
2023/10/15 05:33:29;;;;;;;7.47;0.75;;;4.40;99.90;;;;;;5057679;28;20052;-26
2023/10/15 05:35:56;;;;;;;6.95;0.40;;;4.40;99.90;;;;;;5074695;28;20052;-27
2023/10/15 05:38:22;;;;;;;6.07;0.90;;;4.30;99.90;;;;;;5040000;28;20135;-27
2023/10/15 05:40:49;;;;;;;5.82;0.65;;;4.50;99.90;;;;;;5074566;28;20080;-26
2023/10/15 05:43:17;;;;;;;3.28;0.45;;;4.90;99.90;;;;;;5074546;28;20127;-27
2023/10/15 05:45:47;;;;;;;2.28;0.40;;;5.40;99.90;;;;;;5074545;28;20456;-27
2023/10/15 05:48:13;;;;;;;4.05;0.50;;;5.60;99.90;;;;;;5057339;28;20048;-26
2023/10/15 05:50:39;;;;;;;1.80;0.25;;;5.70;99.90;;;;;;5074159;28;20406;-26
2023/10/15 05:53:06;;;;;;;3.35;0.20;;;5.70;99.90;;;;;;5074490;28;20086;-27
2023/10/15 05:55:32;;;;;;;3.92;0.50;;;5.70;99.90;;;;;;5073470;28;20056;-26
2023/10/15 05:57:58;;;;;;;2.95;0.30;;;5.50;99.90;;;;;;5074604;28;20048;-26
2023/10/15 06:00:26;;;;;;;3.88;0.57;;;5.40;99.90;;;;;;5074211;28;20040;-27
2023/10/15 06:02:56;;;;;;;3.53;0.40;;;5.20;99.90;;;;;;5074198;28;20075;-27
2023/10/15 06:05:22;;;;;;;5.82;0.60;;;5.20;99.90;;;;;;5074396;28;20368;-27
2023/10/15 06:07:48;;;;;;;3.80;0.40;;;5.20;99.90;;;;;;5056394;28;20052;-27
2023/10/15 06:10:15;;;;;;;6.22;0.82;;;5.20;99.90;;;;;;5074361;28;20105;-27
2023/10/15 06:12:42;;;;;;;5.43;0.63;;;5.40;99.90;;;;;;5073694;28;20048;-27
2023/10/15 06:15:09;;;;;;;5.07;0.82;;;5.40;99.90;;;;;;5074541;28;20049;-23
2023/10/15 06:17:35;;;;;;;5.30;0.60;;;5.40;99.90;;;;;;5073976;28;20604;-21
2023/10/15 06:20:12;;;;;;;4.43;0.47;;;5.10;99.90;;;;;;5074159;28;20076;-23
2023/10/15 06:22:49;;;;;;;3.25;0.38;;;4.70;99.90;;;;;;5074265;28;20045;-22
2023/10/15 06:25:18;;;;;;;8.95;1.30;;;4.70;99.90;;;;;;5073019;28;20474;-23
2023/10/15 06:27:45;;;;;;;4.80;0.40;;;4.80;99.90;;;;;;5073941;28;20052;-23
2023/10/15 06:30:20;;;;;;;4.38;0.60;;;4.80;99.90;;;;;;5074374;28;20045;-24
2023/10/15 06:32:49;;;;;;;5.50;0.65;;;5.00;99.90;;;;;;5057451;28;20395;-24
2023/10/15 06:35:20;;;;;;;3.42;0.60;;;4.90;99.90;;;;;;5073177;28;20359;-24
2023/10/15 06:37:50;;;;;;;7.07;0.52;;;4.90;99.90;;;;;;5073785;28;20425;-24
2023/10/15 06:40:16;;;;;;;6.90;1.02;;;4.80;99.90;;;;;;5072545;28;20563;-24
2023/10/15 06:42:43;;;;;;;4.55;0.80;;;4.80;99.90;;;;;;5073380;28;20473;-24
2023/10/15 06:45:09;;;;;;;9.55;1.08;;;4.90;99.90;;;;;;5073722;28;20105;-24
2023/10/15 06:47:36;;;;;;;4.93;0.93;;;5.00;99.90;;;;;;5074247;28;20048;-24
2023/10/15 06:50:07;;;;;;;5.70;0.43;;;5.00;99.90;;;;;;5073005;28;20048;-24
2023/10/15 06:52:39;;;;;;;11.20;0.70;;;5.10;99.90;;;;;;5072961;28;20048;-23
2023/10/15 06:55:10;;;;;;;6.43;1.10;;;5.30;99.90;;;;;;5073266;28;20490;-19
2023/10/15 06:57:40;;;;;;;3.50;0.50;;;5.20;99.90;;;;;;5073966;28;20049;-21
2023/10/15 07:00:10;;;;;;;2.95;0.50;;;5.00;99.90;;;;;;5073725;28;20049;-23
2023/10/15 07:02:36;;;;;;;5.65;0.70;;;4.60;99.90;;;;;;5073483;28;20660;-22
2023/10/15 07:05:03;;;;;;;4.10;0.60;;;4.80;99.90;;;;;;5073648;28;20088;-23
2023/10/15 07:07:31;;;;;;;7.93;0.98;;;4.40;99.90;;;;;;5077622;28;20048;-24
2023/10/15 07:10:01;;;;;;;7.10;0.63;;;4.70;99.90;;;;;;5076584;28;20040;-24
2023/10/15 07:12:26;;;;;;;4.95;0.90;;;4.30;99.90;;;;;;5076518;28;20057;-24
2023/10/15 07:14:52;;;;;;;3.45;0.55;;;4.40;99.90;;;;;;5077964;28;20052;-24
2023/10/15 07:17:18;;;;;;;7.60;1.60;;;4.50;99.90;;;;;;5076339;28;20044;-26
2023/10/15 07:19:44;;;;;;;4.78;0.95;;;4.20;99.90;;;;;;5076997;28;20046;-25
2023/10/15 07:22:09;;;;;;;6.43;0.85;;;4.50;99.90;;;;;;5076976;28;20041;-25
2023/10/15 07:24:35;;;;;;;3.00;0.20;;;4.70;99.90;;;;;;5077198;28;20094;-25
2023/10/15 07:27:01;;;;;;;12.23;1.40;;;4.80;99.90;;;;;;5077208;28;20040;-25
2023/10/15 07:29:30;;;;;;;2.83;0.47;;;4.40;99.90;;;;;;5077129;28;20059;-26
2023/10/15 07:31:56;;;;;;;4.72;0.50;;;5.10;99.90;;;;;;5075930;28;20041;-26
2023/10/15 07:34:26;;;;;;;3.85;0.65;;;4.90;99.90;;;;;;5077029;28;20139;-25
2023/10/15 07:36:55;;;;;;;6.53;1.00;;;5.30;99.90;;;;;;5077633;28;20049;-27
2023/10/15 07:39:25;;;;;;;2.85;0.40;;;5.00;99.90;;;;;;5076952;28;20441;-25
2023/10/15 07:41:54;;;;;;;6.38;0.73;;;5.50;99.90;;;;;;5059033;28;20064;-25
2023/10/15 07:44:19;;;;;;;5.03;0.57;;;5.30;99.90;;;;;;5077462;28;20052;-26
2023/10/15 07:46:46;;;;;;;7.15;0.80;;;5.50;99.90;;;;;;5077307;28;20051;-25
2023/10/15 07:49:12;;;;;;;4.97;0.60;;;5.40;99.90;;;;;;5077577;28;20056;-25
2023/10/15 07:51:41;;;;;;;4.97;0.57;;;5.70;99.90;;;;;;5076694;28;20098;-25
2023/10/15 07:54:07;;;;;;;7.53;1.33;;;5.70;99.90;;;;;;5076633;28;20123;-24
2023/10/15 07:56:34;;;;;;;8.20;0.88;;;5.80;99.90;;;;;;5074993;28;20118;-24
2023/10/15 07:59:08;;;;;;;8.32;0.80;;;5.70;99.90;;;;;;5075687;28;20044;-24
2023/10/15 08:01:34;;;;;;;;;;;5.70;99.90;;;;;;5076904;28;20391;-24
2023/10/15 08:04:00;;;;;;;2.78;0.50;;;5.60;99.90;;;;;;5076477;28;19920;-24
2023/10/15 08:06:26;;;;;;;6.93;1.05;;;5.80;99.90;;;;;;5076657;28;20144;-24
2023/10/15 08:08:52;;;;;;;5.65;0.88;;;5.90;99.90;;;;;;5076343;28;20058;-24
2023/10/15 08:11:18;;;;;;;5.78;0.45;;;6.10;99.90;;;;;;5076366;28;20041;-24
2023/10/15 08:13:44;;;;;;;3.63;0.82;;;6.10;99.90;;;;;;5076917;28;20128;-24
2023/10/15 08:16:09;;;;;;;7.97;0.98;;;6.20;99.90;;;;;;5075916;28;20131;-24
2023/10/15 08:18:35;;;;;;;3.65;0.55;;;6.40;99.90;;;;;;5076151;28;20084;-24
2023/10/15 08:21:01;;;;;;;5.03;0.60;;;6.80;99.90;;;;;;5076549;28;20471;-24
2023/10/15 08:23:27;;;;;;;2.33;0.43;;;6.90;99.90;;;;;;5076696;28;20086;-24
2023/10/15 08:25:53;;;;;;;6.85;0.90;;;7.00;99.90;;;;;;5075768;28;20483;-24
2023/10/15 08:28:19;;;;;;;5.22;0.85;;;7.10;99.90;;;;;;5074895;28;20055;-24
2023/10/15 08:30:46;;;;;;;5.95;0.77;;;7.30;99.90;;;;;;5076013;28;20044;-24
2023/10/15 08:33:12;;;;;;;5.40;0.73;;;7.60;99.90;;;;;;5074919;28;20053;-24
2023/10/15 08:35:40;;;;;;;4.47;0.45;;;7.80;99.90;;;;;;5075239;28;20051;-24
2023/10/15 08:38:07;;;;;;;6.35;1.17;;;7.80;99.90;;;;;;5059059;28;20040;-24
2023/10/15 08:40:45;;;;;;;9.18;1.27;;;7.70;99.90;;;;;;5075855;28;20044;-24
2023/10/15 08:43:16;;;;;;;15.07;2.08;;;7.80;99.90;;;;;;5074672;28;20471;-23
2023/10/15 08:45:45;;;;;;;6.70;0.95;;;7.80;99.90;;;;;;5075886;28;20055;-24
2023/10/15 08:48:12;;;;;;;9.40;0.75;;;7.70;99.90;;;;;;5074521;28;20045;-24
2023/10/15 08:50:39;;;;;;;8.65;1.38;;;7.70;99.90;;;;;;5075630;28;20093;-25
2023/10/15 08:53:07;;;;;;;6.07;0.57;;;7.90;99.90;;;;;;5075886;28;20129;-24
2023/10/15 08:55:34;;;;;;;8.05;1.65;;;8.10;99.90;;;;;;5075355;28;20048;-24
2023/10/15 08:58:00;;;;;;;8.10;1.17;;;8.10;99.90;;;;;;5074308;28;20044;-24
2023/10/15 09:00:27;;;;;;;6.03;1.33;;;7.90;99.90;;;;;;5075042;28;20516;-24
2023/10/15 09:02:59;;;;;;;3.30;0.73;;;7.80;1.00;;;;;;5075407;28;20055;-24
2023/10/15 09:05:36;;;;;;;6.15;0.90;;;7.80;33.20;;;;;;5076210;28;20057;-25
2023/10/15 09:08:07;;;;;;;10.95;0.95;;;8.10;99.90;;;;;;5075606;28;20482;-25
2023/10/15 09:10:43;;;;;;;5.50;0.60;;;9.00;99.90;;;;;;5074625;28;20059;-24
2023/10/15 09:13:18;;;;;;;6.13;1.00;;;8.80;1.00;;;;;;5076105;28;20074;-24
2023/10/15 09:15:47;;;;;;;1.77;0.40;;;8.50;1.00;;;;;;5075510;28;20037;-23
2023/10/15 09:18:15;;;;;;;4.00;0.30;;;8.20;1.00;;;;;;5074990;28;20515;-24
2023/10/15 09:20:44;;;;;;;5.20;0.50;;;7.90;1.00;;;;;;5075123;28;20123;-24
2023/10/15 09:23:10;;;;;;;4.63;0.60;;;7.70;99.90;;;;;;5074985;28;20088;-26
2023/10/15 09:25:36;;;;;;;4.75;0.52;;;7.40;99.90;;;;;;5074955;28;20080;-26
2023/10/15 09:28:03;;;;;;;4.65;0.22;;;7.20;1.00;;;;;;5073647;28;20419;-26
2023/10/15 09:30:32;;;;;;;3.30;0.30;;;7.00;99.90;;;;;;5072745;28;20094;-26
2023/10/15 09:32:58;;;;;;;2.30;0.30;;;6.90;99.90;;;;;;5074118;28;20044;-27
2023/10/15 09:35:24;;;;;;;4.47;0.47;;;6.90;99.90;;;;;;5074733;28;20048;-26
2023/10/15 09:37:53;;;;;;;5.53;0.52;;;6.80;1.00;;;;;;5074672;28;20141;-26
2023/10/15 09:40:31;;;;;;;2.08;0.35;;;6.90;1.00;;;;;;5073534;28;20090;-26
2023/10/15 09:42:57;;;;;;;5.88;0.60;;;7.50;12.50;;;;;;5057862;28;20063;-27
2023/10/15 09:45:23;;;;;;;3.78;0.38;;;8.20;1.00;;;;;;5074617;28;20052;-28
2023/10/15 09:47:57;;;;;;;7.22;1.42;;;;;;;;;;5073507;28;20049;-27
2023/10/15 09:50:38;;;;;;;6.43;0.80;;;11.00;1.00;;;;;;5074534;28;20052;-27
2023/10/15 09:53:11;;;;;;;6.43;0.68;;;11.10;1.00;;;;;;5059696;28;20052;-27
2023/10/15 09:55:38;;;;;;;;;;;10.50;99.90;;;;;;5074732;28;20094;-26
2023/10/15 09:58:04;;;;;;;5.75;0.98;;;10.80;1.00;;;;;;5075399;28;19973;-26
2023/10/15 10:01:17;;;;;;;5.75;1.48;;;11.00;1.00;;;;;;5074216;28;20045;-26
2023/10/15 10:03:49;;;;;;;5.93;1.02;;;10.70;99.90;;;;;;5073215;28;20088;-26
2023/10/15 10:06:44;;;;;;;2.17;0.30;;;9.90;1.00;;;;;;5074752;28;20048;-26
2023/10/15 10:09:36;;;;;;;2.38;0.30;;;9.60;1.00;;;;;;5074120;28;20456;-26
2023/10/15 10:12:42;;;;;;;1.98;0.30;;;9.50;1.00;;;;;;5074093;28;20595;-26
2023/10/15 10:15:28;;;;;;;2.53;0.40;;;9.10;1.00;;;;;;5074071;28;20056;-25
2023/10/15 10:17:55;;;;;;;1.58;0.20;;;8.70;99.90;;;;;;5072708;28;20479;-26
2023/10/15 10:20:30;;;;;;;3.05;0.47;;;8.80;99.90;;;;;;5072986;28;20048;-26
2023/10/15 10:23:04;;;;;;;2.42;0.32;;;9.50;1.00;;;;;;5073269;28;20386;-26
2023/10/15 10:25:39;;;;;;;1.67;0.20;;;10.10;1.00;;;;;;5074762;28;20044;-26
2023/10/15 10:28:16;;;;;;;1.00;0.10;;;10.60;1.00;;;;;;5073762;28;20060;-27
2023/10/15 10:30:56;;;;;;;2.15;0.10;;;10.90;66.20;;;;;;5074173;28;20077;-28
2023/10/15 10:33:44;;;;;;;2.70;0.10;;;11.10;99.90;;;;;;5073799;28;20044;-28
2023/10/15 10:36:14;;;;;;;3.13;0.30;;;11.20;99.90;;;;;;5073807;28;20478;-27
2023/10/15 10:38:40;;;;;;;3.75;0.30;;;11.60;1.00;;;;;;5073676;28;20045;-27
2023/10/15 10:41:13;;;;;;;3.60;0.35;;;11.90;1.00;;;;;;5073335;28;20044;-28
2023/10/15 10:43:42;;;;;;;5.93;0.60;;;11.60;23.90;;;;;;5074071;28;20182;-28
2023/10/15 10:46:22;;;;;;;4.85;1.10;;;11.20;34.10;;;;;;5073702;28;20489;-26
2023/10/15 10:49:15;;;;;;;4.47;0.82;;;9.40;99.90;;;;;;5073705;28;20127;-26
2023/10/15 10:51:42;;;;;;;6.07;0.80;;;8.50;99.90;;;;;;5057667;28;20056;-26
2023/10/15 10:54:08;;;;;;;6.18;0.70;;;8.10;1.00;;;;;;5072648;28;20632;-27
2023/10/15 10:56:40;;;;;;;3.00;0.60;;;7.90;1.00;;;;;;5073943;28;20056;-28
2023/10/15 10:59:06;;;;;;;7.32;1.20;;;7.90;1.00;;;;;;5073537;28;20049;-29
2023/10/15 11:01:40;;;;;;;5.75;0.65;;;8.70;99.90;;;;;;5073430;28;20090;-30
2023/10/15 11:04:11;;;;;;;7.47;0.77;;;9.70;1.00;;;;;;5072184;28;20491;-30
2023/10/15 11:06:38;;;;;;;4.28;0.80;;;10.60;99.90;;;;;;5056007;28;20041;-29
2023/10/15 11:09:18;;;;;;;7.50;0.80;;;11.00;26.30;;;;;;5073423;28;20048;-29
2023/10/15 11:11:47;;;;;;;7.82;1.20;;;11.00;1.00;;;;;;5074009;28;20055;-32
2023/10/15 11:14:18;;;;;;;5.97;1.08;;;11.40;99.90;;;;;;5073157;28;20048;-29
2023/10/15 11:16:45;;;;;;;6.80;1.08;;;11.80;1.00;;;;;;5073184;28;20084;-29
2023/10/15 11:19:17;;;;;;;9.43;0.93;;;12.10;99.90;;;;;;5073318;28;20044;-29
2023/10/15 11:21:43;;;;;;;4.95;1.20;;;12.20;99.90;;;;;;5074082;28;20052;-29
2023/10/15 11:24:10;;;;;;;3.35;0.85;;;11.90;28.90;;;;;;5074106;28;20127;-28
2023/10/15 11:26:41;;;;;;;6.78;1.20;;;11.30;99.90;;;;;;5074113;28;20094;-24
2023/10/15 11:29:12;;;;;;;6.18;0.80;;;8.90;99.90;;;;;;5072539;28;20490;-24
2023/10/15 11:31:48;;;;;;;1.88;0.30;;;8.00;1.00;;;;;;5073219;28;20052;-24
2023/10/15 11:34:22;;;;;;;1.95;0.40;;;7.60;1.00;;;;;;5073246;28;20052;-26
2023/10/15 11:36:50;;;;;;;2.90;0.63;;;7.30;99.90;;;;;;5073163;28;20041;-27
2023/10/15 11:39:29;;;;;;;2.83;0.30;;;7.30;1.00;;;;;;5074259;28;20056;-27
2023/10/15 11:41:58;;;;;;;4.07;0.40;;;7.50;99.90;;;;;;5073146;28;20048;-27
2023/10/15 11:44:30;;;;;;;5.13;0.70;;;7.70;1.00;;;;;;5073301;28;20051;-27
2023/10/15 11:46:57;;;;;;;8.47;0.87;;;7.70;77.30;;;;;;5073739;28;20052;-28
2023/10/15 11:49:30;;;;;;;5.28;0.82;;;7.90;99.90;;;;;;5072404;28;20114;-28
2023/10/15 11:51:56;;;;;;;2.10;0.50;;;8.50;99.90;;;;;;5073394;28;20044;-29
2023/10/15 11:54:28;;;;;;;7.65;0.70;;;9.00;99.90;;;;;;5076684;28;20401;-28
2023/10/15 11:56:54;;;;;;;4.80;0.77;;;9.70;99.90;;;;;;5076409;28;20061;-28
2023/10/15 11:59:21;;;;;;;5.80;1.27;;;9.80;99.90;;;;;;5076610;28;20559;-28
2023/10/15 12:01:51;;;;;;;3.65;0.60;;;9.50;99.90;;;;;;5075348;28;20044;-29
2023/10/15 12:04:19;;;;;;;9.35;1.40;;;9.20;99.90;;;;;;5076861;28;20131;-28
2023/10/15 12:06:48;;;;;;;8.23;0.80;;;9.10;99.90;;;;;;5076326;28;20064;-29
2023/10/15 12:09:16;;;;;;;7.03;0.85;;;9.30;88.90;;;;;;5076400;28;20159;-28
2023/10/15 12:11:44;;;;;;;6.43;0.88;;;9.90;1.00;;;;;;5076937;28;20056;-28
2023/10/15 12:14:11;;;;;;;7.57;0.93;;;10.20;1.00;;;;;;5077186;28;20087;-28
2023/10/15 12:16:40;;;;;;;9.93;2.20;;;10.20;99.90;;;;;;5075899;28;20123;-28
2023/10/15 12:19:08;;;;;;;5.18;1.40;;;10.30;1.00;;;;;;5076830;28;20048;-28
2023/10/15 12:21:36;;;;;;;10.63;1.17;;;10.10;19.30;;;;;;5076227;28;20048;-27
2023/10/15 12:24:03;;;;;;;4.72;1.00;;;10.10;1.00;;;;;;5076202;28;20047;-27
2023/10/15 12:26:28;;;;;;;4.72;0.50;;;10.20;99.90;;;;;;5076713;28;20433;-28
2023/10/15 12:28:54;;;;;;;2.67;0.43;;;10.20;2.70;;;;;;5076057;28;20127;-28
2023/10/15 12:31:20;;;;;;;3.08;0.38;;;10.70;1.00;;;;;;5075307;28;20049;-28
2023/10/15 12:33:46;;;;;;;6.35;0.93;;;11.20;1.00;;;;;;5075571;28;20044;-28
2023/10/15 12:36:13;;;;;;;6.78;0.73;;;11.70;1.00;;;;;;5075086;28;20048;-28
2023/10/15 12:38:39;;;;;;;4.18;0.60;;;12.10;1.00;;;;;;5075811;28;20080;-29
2023/10/15 12:41:05;;;;;;;4.30;1.10;;;11.90;99.90;;;;;;5074765;28;20087;-28
2023/10/15 12:43:32;;;;;;;2.65;0.40;;;11.10;99.90;;;;;;5075871;28;20508;-28
2023/10/15 12:45:58;;;;;;;6.05;0.82;;;10.70;1.00;;;;;;5075783;28;20517;-28
2023/10/15 12:48:26;;;;;;;8.05;1.33;;;10.30;1.00;;;;;;5074820;28;20389;-28
2023/10/15 12:50:52;;;;;;;4.40;0.98;;;10.20;99.90;;;;;;5074529;28;20126;-27
2023/10/15 12:53:19;;;;;;;6.22;0.73;;;9.90;99.90;;;;;;5075624;28;20048;-27
2023/10/15 12:55:44;;;;;;;9.35;1.15;;;9.70;33.30;;;;;;5075439;28;20061;-29
2023/10/15 12:58:10;;;;;;;10.20;1.33;;;9.20;99.90;;;;;;5074637;28;20060;-27
2023/10/15 13:00:43;;;;;;;9.32;1.38;;;9.10;99.90;;;;;;5075621;28;20041;-27
2023/10/15 13:03:10;;;;;;;10.95;1.48;;;9.10;99.90;;;;;;5075527;28;20044;-28
2023/10/15 13:05:36;;;;;;;5.65;0.70;;;9.20;99.90;;;;;;5057779;28;20083;-28
2023/10/15 13:08:03;;;;;;;4.90;0.52;;;9.50;99.90;;;;;;5075342;28;20087;-28
2023/10/15 13:10:29;;;;;;;4.90;0.77;;;10.00;99.90;;;;;;5076100;28;20056;-28
2023/10/15 13:12:55;;;;;;;7.95;0.90;;;10.30;99.90;;;;;;5076074;28;20048;-27
2023/10/15 13:15:24;;;;;;;7.82;0.98;;;10.50;1.00;;;;;;5075210;28;20448;-28
2023/10/15 13:17:54;;;;;;;4.25;0.60;;;10.70;99.90;;;;;;5057198;28;20047;-28
2023/10/15 13:20:21;;;;;;;5.15;0.90;;;11.00;52.40;;;;;;5074930;28;20153;-28
2023/10/15 13:22:49;;;;;;;3.88;0.47;;;11.20;99.90;;;;;;5075067;28;20044;-27
2023/10/15 13:25:15;;;;;;;2.58;0.40;;;11.10;32.50;;;;;;5074944;28;20051;-29
2023/10/15 13:27:42;;;;;;;5.68;0.77;;;11.20;35.50;;;;;;5075635;28;20048;-28
2023/10/15 13:30:12;;;;;;;5.65;1.05;;;11.30;1.00;;;;;;5074841;28;20453;-27